createdAt,value
2022-09-28T00:01:00.382Z,546.1
2022-09-28T00:02:07.150Z,545
2022-09-28T00:03:13.937Z,546.6
2022-09-28T00:04:20.706Z,547.1
2022-09-28T00:05:27.514Z,547.5
2022-09-28T00:06:34.247Z,543.7
2022-09-28T00:07:41.069Z,546.1
2022-09-28T00:08:47.800Z,541.5
2022-09-28T00:09:54.578Z,544
2022-09-28T00:11:01.336Z,547.5
2022-09-28T00:12:08.117Z,544.2
2022-09-28T00:15:26.302Z,546.6
2022-09-28T00:17:04.184Z,550.2
2022-09-28T00:18:10.581Z,546.3
2022-09-28T00:19:17.001Z,542
2022-09-28T00:20:23.425Z,544.5
2022-09-28T00:21:29.842Z,546.5
2022-09-28T00:22:36.259Z,542.7
2022-09-28T00:23:42.672Z,546.8
2022-09-28T00:24:49.084Z,545
2022-09-28T00:25:55.510Z,545.6
2022-09-28T00:27:01.940Z,546.5
2022-09-28T00:28:08.367Z,545.2
2022-09-28T00:30:21.212Z,544.9
2022-09-28T00:31:27.623Z,547.3
2022-09-28T00:32:34.047Z,544.9
2022-09-28T00:33:40.463Z,542.2
2022-09-28T00:34:46.931Z,541.5
2022-09-28T00:35:53.309Z,542.1
2022-09-28T00:36:59.758Z,547.6
2022-09-28T00:38:06.169Z,543.5
2022-09-28T00:39:12.579Z,539.7
2022-09-28T00:40:18.993Z,548.4
2022-09-28T00:41:25.441Z,546.2
2022-09-28T00:42:31.847Z,542
2022-09-28T00:43:38.272Z,542.4
2022-09-28T00:44:44.832Z,545.2
2022-09-28T00:45:51.367Z,549.9
2022-09-28T00:46:57.908Z,545.4
2022-09-28T00:48:04.442Z,543.6
2022-09-28T00:49:10.987Z,547.2
2022-09-28T00:50:17.553Z,544.4
2022-09-28T00:51:24.072Z,543.7
2022-09-28T00:52:30.604Z,543.8
2022-09-28T00:53:37.146Z,551.8
2022-09-28T00:54:43.752Z,544.2
2022-09-28T00:55:50.226Z,549.9
2022-09-28T00:56:56.824Z,549.4
2022-09-28T00:58:03.305Z,544.5
2022-09-28T00:59:52.662Z,548.8
2022-09-28T01:00:59.440Z,547
2022-09-28T01:02:06.223Z,551
2022-09-28T01:03:13.000Z,547.1
2022-09-28T01:04:19.794Z,544
2022-09-28T01:05:26.556Z,544.5
2022-09-28T01:06:33.335Z,544.4
2022-09-28T01:07:40.112Z,547.6
2022-09-28T01:08:46.885Z,540.3
2022-09-28T01:09:53.660Z,546.8
2022-09-28T01:11:00.438Z,545.6
2022-09-28T01:12:07.219Z,539.3
2022-09-28T01:13:13.994Z,549.9
2022-09-28T01:16:32.184Z,543.5
2022-09-28T01:18:10.069Z,543.6
2022-09-28T01:19:16.496Z,546.3
2022-09-28T01:20:22.919Z,540.3
2022-09-28T01:21:29.334Z,546
2022-09-28T01:22:35.762Z,548.1
2022-09-28T01:23:42.185Z,543
2022-09-28T01:24:48.609Z,541
2022-09-28T01:25:55.031Z,543.8
2022-09-28T01:27:01.447Z,543.5
2022-09-28T01:28:07.864Z,545.7
2022-09-28T01:29:14.289Z,542.2
2022-09-28T01:30:20.722Z,544
2022-09-28T01:31:27.136Z,548.1
2022-09-28T01:32:33.559Z,545.7
2022-09-28T01:33:39.976Z,546.2
2022-09-28T01:34:46.404Z,541.8
2022-09-28T01:35:52.824Z,547.4
2022-09-28T01:38:05.667Z,544.7
2022-09-28T01:39:12.086Z,544.9
2022-09-28T01:40:18.509Z,548.2
2022-09-28T01:41:24.932Z,545.9
2022-09-28T01:42:31.346Z,547.9
2022-09-28T01:43:37.755Z,549.9
2022-09-28T01:44:44.174Z,545.8
2022-09-28T01:45:50.752Z,549.4
2022-09-28T01:46:57.271Z,541.7
2022-09-28T01:48:03.802Z,542.1
2022-09-28T01:49:10.343Z,547.6
2022-09-28T01:50:16.882Z,550.3
2022-09-28T01:51:23.416Z,545.1
2022-09-28T01:52:29.958Z,550.1
2022-09-28T01:53:36.490Z,551.9
2022-09-28T01:54:43.035Z,550.8
2022-09-28T01:55:49.558Z,545.8
2022-09-28T01:56:56.109Z,548.8
2022-09-28T01:58:02.646Z,547.8
2022-09-28T01:59:09.187Z,545.4
2022-09-28T02:00:58.547Z,547.8
2022-09-28T02:02:05.305Z,552.5
2022-09-28T02:03:12.075Z,544
2022-09-28T02:04:18.860Z,545.3
2022-09-28T02:05:25.644Z,545.3
2022-09-28T02:06:32.408Z,543.9
2022-09-28T02:07:39.185Z,553
2022-09-28T02:08:45.958Z,544.9
2022-09-28T02:09:52.742Z,544.9
2022-09-28T02:10:59.514Z,545.9
2022-09-28T02:12:06.290Z,546.7
2022-09-28T02:13:13.067Z,543.7
2022-09-28T02:14:19.838Z,548.6
2022-09-28T02:17:38.040Z,547
2022-09-28T02:19:16.779Z,550.6
2022-09-28T02:20:22.754Z,547.3
2022-09-28T02:21:29.186Z,542.8
2022-09-28T02:22:35.608Z,547.8
2022-09-28T02:23:42.023Z,548.3
2022-09-28T02:24:48.442Z,544.8
2022-09-28T02:25:54.868Z,548.1
2022-09-28T02:27:01.281Z,546
2022-09-28T02:28:07.710Z,545.3
2022-09-28T02:29:14.125Z,543.5
2022-09-28T02:30:20.551Z,546.8
2022-09-28T02:31:26.982Z,545.3
2022-09-28T02:32:33.388Z,545.5
2022-09-28T02:33:39.799Z,547.9
2022-09-28T02:34:46.231Z,544
2022-09-28T02:35:52.643Z,547.7
2022-09-28T02:36:59.068Z,544.1
2022-09-28T02:38:05.497Z,547.2
2022-09-28T02:39:11.910Z,550.6
2022-09-28T02:40:18.337Z,546.1
2022-09-28T02:41:24.754Z,544.8
2022-09-28T02:42:31.182Z,547.8
2022-09-28T02:43:37.610Z,543.2
2022-09-28T02:44:44.017Z,545.6
2022-09-28T02:45:50.441Z,543.8
2022-09-28T02:46:56.869Z,548.2
2022-09-28T02:48:03.427Z,550
2022-09-28T02:49:09.959Z,546.6
2022-09-28T02:50:16.517Z,549.9
2022-09-28T02:51:23.037Z,545.2
2022-09-28T02:52:29.577Z,546.4
2022-09-28T02:53:36.120Z,547.1
2022-09-28T02:54:42.659Z,542
2022-09-28T02:55:49.201Z,547.7
2022-09-28T02:56:55.743Z,548
2022-09-28T02:58:02.284Z,543.1
2022-09-28T02:59:08.822Z,546.5
2022-09-28T03:00:15.362Z,547.3
2022-09-28T03:01:21.913Z,548.6
2022-09-28T03:02:55.146Z,550.3
2022-09-28T03:04:01.923Z,546.9
2022-09-28T03:05:08.708Z,546.6
2022-09-28T03:06:15.494Z,545.9
2022-09-28T03:07:22.256Z,547.2
2022-09-28T03:08:29.028Z,542.7
2022-09-28T03:09:35.817Z,541.7
2022-09-28T03:10:42.593Z,543.1
2022-09-28T03:11:49.378Z,554.3
2022-09-28T03:12:56.143Z,546.8
2022-09-28T03:14:02.917Z,549.4
2022-09-28T03:15:09.688Z,549.8
2022-09-28T03:16:16.463Z,548.8
2022-09-28T03:19:34.657Z,541
2022-09-28T03:21:12.560Z,550.7
2022-09-28T03:22:18.979Z,546.2
2022-09-28T03:23:25.406Z,548.5
2022-09-28T03:24:31.827Z,548.1
2022-09-28T03:25:38.250Z,545
2022-09-28T03:26:44.676Z,544.9
2022-09-28T03:27:51.088Z,540.2
2022-09-28T03:28:57.511Z,543.9
2022-09-28T03:30:03.942Z,550.8
2022-09-28T03:31:10.356Z,548.5
2022-09-28T03:32:16.772Z,549.2
2022-09-28T03:33:23.206Z,547.6
2022-09-28T03:34:29.613Z,548.7
2022-09-28T03:35:36.030Z,550.7
2022-09-28T03:36:42.461Z,548.8
2022-09-28T03:37:48.877Z,544.5
2022-09-28T03:38:55.295Z,544.8
2022-09-28T03:40:01.750Z,549.7
2022-09-28T03:41:08.143Z,544.2
2022-09-28T03:42:14.574Z,545.6
2022-09-28T03:43:20.985Z,548.1
2022-09-28T03:44:27.405Z,546
2022-09-28T03:45:33.829Z,550.9
2022-09-28T03:46:40.252Z,548.1
2022-09-28T03:47:46.676Z,547.2
2022-09-28T03:48:53.228Z,547.9
2022-09-28T03:49:59.769Z,542.9
2022-09-28T03:51:06.304Z,546.3
2022-09-28T03:52:12.851Z,547.3
2022-09-28T03:53:19.388Z,549
2022-09-28T03:54:25.914Z,550.6
2022-09-28T03:55:32.462Z,546.8
2022-09-28T03:56:39.000Z,547.1
2022-09-28T03:57:45.540Z,545.9
2022-09-28T03:58:52.078Z,547.3
2022-09-28T03:59:58.620Z,548
2022-09-28T04:01:05.160Z,541.9
2022-09-28T04:02:11.710Z,547.9
2022-09-28T04:03:43.814Z,548.2
2022-09-28T04:04:50.593Z,550.6
2022-09-28T04:05:57.368Z,547.9
2022-09-28T04:07:04.146Z,545.6
2022-09-28T04:08:10.930Z,548.3
2022-09-28T04:09:17.722Z,547.9
2022-09-28T04:10:24.476Z,544.9
2022-09-28T04:11:31.257Z,546.7
2022-09-28T04:12:38.043Z,547.3
2022-09-28T04:13:44.813Z,546.6
2022-09-28T04:14:51.606Z,547.4
2022-09-28T04:15:58.359Z,552.5
2022-09-28T04:17:05.132Z,553
2022-09-28T04:20:23.320Z,545.2
2022-09-28T04:22:01.361Z,547.8
2022-09-28T04:23:07.877Z,544.8
2022-09-28T04:24:14.426Z,545.9
2022-09-28T04:26:27.513Z,543.8
2022-09-28T04:27:34.057Z,552.6
2022-09-28T04:28:40.597Z,542.7
2022-09-28T04:29:47.134Z,545.3
2022-09-28T04:30:53.674Z,544.3
2022-09-28T04:32:00.216Z,550.8
2022-09-28T04:33:06.764Z,547.2
2022-09-28T04:34:13.327Z,546.3
2022-09-28T04:35:19.842Z,549.2
2022-09-28T04:36:26.382Z,549.5
2022-09-28T04:37:32.960Z,547.7
2022-09-28T04:38:39.465Z,546
2022-09-28T04:39:45.999Z,545.1
2022-09-28T04:40:52.545Z,545.1
2022-09-28T04:41:59.086Z,547.2
2022-09-28T04:43:05.624Z,550.5
2022-09-28T04:44:12.164Z,548.5
2022-09-28T04:45:18.709Z,549.5
2022-09-28T04:46:25.256Z,541.9
2022-09-28T04:47:31.775Z,548.9
2022-09-28T04:48:38.320Z,547
2022-09-28T04:49:45.106Z,544.2
2022-09-28T04:50:51.876Z,548.5
2022-09-28T04:51:58.658Z,548.7
2022-09-28T04:53:05.428Z,547.3
2022-09-28T04:54:12.220Z,546.8
2022-09-28T04:55:18.976Z,546.6
2022-09-28T04:56:25.757Z,545.7
2022-09-28T04:57:32.533Z,543.1
2022-09-28T04:58:39.308Z,541.1
2022-09-28T04:59:46.083Z,548
2022-09-28T05:00:52.868Z,546.4
2022-09-28T05:01:59.662Z,540.3
2022-09-28T05:03:06.419Z,551.4
2022-09-28T05:06:24.597Z,549
2022-09-28T05:08:02.617Z,545.6
2022-09-28T05:09:09.153Z,547.8
2022-09-28T05:10:15.700Z,547.8
2022-09-28T05:11:22.237Z,544.9
2022-09-28T05:12:28.775Z,543.9
2022-09-28T05:13:35.317Z,548.7
2022-09-28T05:14:41.858Z,550.4
2022-09-28T05:15:48.399Z,546.4
2022-09-28T05:16:54.935Z,546.2
2022-09-28T05:18:01.478Z,544.7
2022-09-28T05:19:08.051Z,544.2
2022-09-28T05:20:14.561Z,543.5
2022-09-28T05:21:21.104Z,547
2022-09-28T05:22:27.641Z,543.3
2022-09-28T05:23:34.175Z,548
2022-09-28T05:24:40.720Z,551.6
2022-09-28T05:25:47.263Z,546.4
2022-09-28T05:26:53.808Z,549.3
2022-09-28T05:28:00.340Z,545.7
2022-09-28T05:29:06.879Z,545
2022-09-28T05:30:13.436Z,542.9
2022-09-28T05:31:19.963Z,548.7
2022-09-28T05:32:26.498Z,550.5
2022-09-28T05:33:33.037Z,546.6
2022-09-28T05:34:39.581Z,544.3
2022-09-28T05:35:46.361Z,549.3
2022-09-28T05:36:53.134Z,545.9
2022-09-28T05:37:59.910Z,545.9
2022-09-28T05:39:06.687Z,546.9
2022-09-28T05:40:13.464Z,550.8
2022-09-28T05:41:20.240Z,547.4
2022-09-28T05:42:27.067Z,550.4
2022-09-28T05:43:33.800Z,547.8
2022-09-28T05:44:40.576Z,549.4
2022-09-28T05:45:47.354Z,553.1
2022-09-28T05:46:54.127Z,548.6
2022-09-28T05:48:00.903Z,551.6
2022-09-28T05:49:07.675Z,548.2
2022-09-28T05:52:25.865Z,550.4
2022-09-28T05:54:03.927Z,551.7
2022-09-28T05:55:10.505Z,549.6
2022-09-28T05:56:16.950Z,553.1
2022-09-28T05:57:23.496Z,548.2
2022-09-28T05:58:30.036Z,547.6
2022-09-28T05:59:36.570Z,547.2
2022-09-28T06:00:43.099Z,549.1
2022-09-28T06:01:49.635Z,547.1
2022-09-28T06:02:56.175Z,549.3
2022-09-28T06:04:02.717Z,548.1
2022-09-28T06:05:09.251Z,545.5
2022-09-28T06:06:15.792Z,550.9
2022-09-28T06:07:22.352Z,550.8
2022-09-28T06:08:28.871Z,546.3
2022-09-28T06:09:35.429Z,543.6
2022-09-28T06:10:42.023Z,548.7
2022-09-28T06:11:48.496Z,553.9
2022-09-28T06:12:55.021Z,550.1
2022-09-28T06:14:01.564Z,547.2
2022-09-28T06:15:08.101Z,549.5
2022-09-28T06:16:14.629Z,551.9
2022-09-28T06:17:21.160Z,550.7
2022-09-28T06:18:27.691Z,551.2
2022-09-28T06:19:34.227Z,553.4
2022-09-28T06:20:40.768Z,555.2
2022-09-28T06:21:47.533Z,547.4
2022-09-28T06:22:54.302Z,552.3
2022-09-28T06:24:01.066Z,551.6
2022-09-28T06:25:07.858Z,551.3
2022-09-28T06:26:14.626Z,550.6
2022-09-28T06:27:21.402Z,553.9
2022-09-28T06:28:28.206Z,549.4
2022-09-28T06:29:34.941Z,553.1
2022-09-28T06:30:41.709Z,551.6
2022-09-28T06:31:48.480Z,554.9
2022-09-28T06:32:55.252Z,552.2
2022-09-28T06:34:02.021Z,551.5
2022-09-28T06:35:08.807Z,554.1
2022-09-28T06:38:26.978Z,550.8
2022-09-28T06:40:05.023Z,550.1
2022-09-28T06:41:11.568Z,548.2
2022-09-28T06:42:18.071Z,552.8
2022-09-28T06:43:24.702Z,550.5
2022-09-28T06:44:31.265Z,554.2
2022-09-28T06:45:37.707Z,548
2022-09-28T06:46:44.228Z,558.2
2022-09-28T06:47:50.761Z,550.7
2022-09-28T06:48:57.298Z,551.2
2022-09-28T06:50:03.841Z,559.1
2022-09-28T06:51:10.374Z,550.4
2022-09-28T06:52:16.907Z,552.9
2022-09-28T06:53:23.448Z,553.1
2022-09-28T06:54:30.000Z,554.1
2022-09-28T06:55:36.526Z,552.9
2022-09-28T06:56:43.065Z,556.6
2022-09-28T06:57:49.619Z,556.9
2022-09-28T06:58:56.160Z,555.9
2022-09-28T07:00:02.756Z,553.7
2022-09-28T07:01:09.257Z,547.7
2022-09-28T07:02:15.757Z,556.2
2022-09-28T07:03:22.311Z,551.4
2022-09-28T07:04:28.833Z,545.5
2022-09-28T07:05:35.410Z,552.6
2022-09-28T07:06:41.902Z,552
2022-09-28T07:07:48.689Z,556.1
2022-09-28T07:08:55.651Z,551.1
2022-09-28T07:10:02.323Z,558.9
2022-09-28T07:11:09.033Z,551.7
2022-09-28T07:12:15.776Z,554.7
2022-09-28T07:13:22.709Z,556.3
2022-09-28T07:14:29.382Z,553
2022-09-28T07:15:36.169Z,552.2
2022-09-28T07:16:42.881Z,550.2
2022-09-28T07:17:49.643Z,550
2022-09-28T07:18:56.424Z,555.9
2022-09-28T07:20:03.340Z,555.1
2022-09-28T07:21:10.104Z,556.7
2022-09-28T07:24:28.227Z,556.6
2022-09-28T07:26:06.175Z,554.1
2022-09-28T07:27:12.699Z,552.8
2022-09-28T07:28:19.241Z,552.4
2022-09-28T07:29:25.773Z,552.5
2022-09-28T07:30:32.329Z,550.9
2022-09-28T07:31:38.851Z,553.2
2022-09-28T07:32:45.392Z,548.5
2022-09-28T07:33:51.931Z,552.2
2022-09-28T07:34:58.461Z,550.3
2022-09-28T07:36:05.045Z,551.2
2022-09-28T07:37:11.544Z,552.6
2022-09-28T07:38:18.105Z,553.9
2022-09-28T07:39:24.643Z,555.5
2022-09-28T07:40:31.199Z,557
2022-09-28T07:41:37.755Z,560.1
2022-09-28T07:42:44.319Z,562.7
2022-09-28T07:43:50.860Z,562.7
2022-09-28T07:44:57.425Z,560.9
2022-09-28T07:46:03.965Z,560
2022-09-28T07:47:10.519Z,564.1
2022-09-28T07:48:17.077Z,562.9
2022-09-28T07:49:23.639Z,561.8
2022-09-28T07:50:30.185Z,558.6
2022-09-28T07:51:36.743Z,558.3
2022-09-28T07:52:43.294Z,561.6
2022-09-28T07:53:50.080Z,562
2022-09-28T07:54:56.864Z,555.8
2022-09-28T07:56:03.668Z,558.3
2022-09-28T07:57:10.455Z,559.8
2022-09-28T07:58:17.245Z,557.9
2022-09-28T07:59:24.045Z,561.2
2022-09-28T08:00:30.839Z,557.2
2022-09-28T08:01:37.614Z,558.8
2022-09-28T08:02:44.406Z,555.4
2022-09-28T08:03:51.187Z,552.6
2022-09-28T08:04:57.988Z,558.3
2022-09-28T08:06:04.824Z,561.7
2022-09-28T08:07:11.571Z,558
2022-09-28T08:10:29.671Z,560.9
2022-09-28T08:12:08.416Z,558.3
2022-09-28T08:13:47.147Z,563.7
2022-09-28T08:14:54.410Z,563.8
2022-09-28T08:16:01.678Z,561.7
2022-09-28T08:17:40.419Z,556.1
2022-09-28T08:19:19.152Z,561.5
2022-09-28T08:20:57.936Z,558.1
2022-09-28T08:22:36.631Z,562
2022-09-28T08:24:15.379Z,564.1
2022-09-28T08:25:54.104Z,559.9
2022-09-28T08:27:32.836Z,558
2022-09-28T08:29:11.566Z,559.8
2022-09-28T08:31:22.427Z,562.6
2022-09-28T08:33:17.858Z,563.9
2022-09-28T08:34:24.388Z,563.5
2022-09-28T08:35:30.940Z,560.9
2022-09-28T08:36:37.489Z,557.6
2022-09-28T08:37:44.051Z,559.2
2022-09-28T08:38:50.625Z,560.6
2022-09-28T08:39:57.159Z,559
2022-09-28T08:41:03.718Z,558.2
2022-09-28T08:42:10.267Z,562
2022-09-28T08:43:16.814Z,559.3
2022-09-28T08:44:23.381Z,556.9
2022-09-28T08:45:29.968Z,561.3
2022-09-28T08:46:36.528Z,560.3
2022-09-28T08:47:43.045Z,559.4
2022-09-28T08:48:49.587Z,563.8
2022-09-28T08:49:56.188Z,563.4
2022-09-28T08:51:02.696Z,561
2022-09-28T08:52:09.242Z,561.7
2022-09-28T08:53:15.798Z,558.7
2022-09-28T08:54:22.349Z,561.2
2022-09-28T08:55:28.909Z,562.6
2022-09-28T08:56:35.462Z,558.1
2022-09-28T08:57:42.015Z,563
2022-09-28T08:58:48.568Z,562
2022-09-28T08:59:55.120Z,563.6
2022-09-28T09:01:01.915Z,565
2022-09-28T09:02:08.698Z,563.5
2022-09-28T09:03:15.497Z,565.1
2022-09-28T09:04:22.275Z,560.1
2022-09-28T09:05:29.072Z,564.4
2022-09-28T09:06:35.864Z,560.8
2022-09-28T09:07:42.696Z,559.7
2022-09-28T09:08:49.450Z,562.2
2022-09-28T09:09:56.249Z,562.5
2022-09-28T09:11:03.041Z,566.4
2022-09-28T09:12:09.836Z,567.8
2022-09-28T09:13:16.631Z,567
2022-09-28T09:14:23.427Z,566.6
2022-09-28T09:17:03.834Z,565.7
2022-09-28T09:18:42.574Z,564.7
2022-09-28T09:20:21.319Z,566.3
2022-09-28T09:22:00.057Z,570.2
2022-09-28T09:23:07.327Z,565.5
2022-09-28T09:24:14.598Z,562.7
2022-09-28T09:25:53.336Z,563
2022-09-28T09:27:32.081Z,565.7
2022-09-28T09:29:10.821Z,568
2022-09-28T09:30:49.558Z,563.7
2022-09-28T09:32:28.297Z,564.1
2022-09-28T09:34:07.038Z,567.7
2022-09-28T09:35:45.777Z,569.4
2022-09-28T09:39:35.321Z,570.8
2022-09-28T09:40:43.497Z,568.8
2022-09-28T09:43:59.091Z,568.2
2022-09-28T09:45:05.495Z,569.9
2022-09-28T09:46:11.933Z,569.8
2022-09-28T09:47:18.357Z,565.8
2022-09-28T09:48:24.847Z,567.2
2022-09-28T09:49:31.232Z,568.9
2022-09-28T09:50:37.677Z,569.3
2022-09-28T09:51:44.104Z,565.8
2022-09-28T09:52:50.550Z,571.7
2022-09-28T09:53:56.989Z,565.5
2022-09-28T09:55:03.421Z,568.6
2022-09-28T09:56:09.858Z,569.6
2022-09-28T09:57:16.328Z,572.1
2022-09-28T09:58:22.732Z,572.9
2022-09-28T09:59:29.166Z,573
2022-09-28T10:00:35.610Z,575
2022-09-28T10:01:42.049Z,568.9
2022-09-28T10:02:48.483Z,569.4
2022-09-28T10:03:54.922Z,565.9
2022-09-28T10:05:01.353Z,567.3
2022-09-28T10:06:07.799Z,565.6
2022-09-28T10:07:14.241Z,563.7
2022-09-28T10:08:20.682Z,563.4
2022-09-28T10:09:27.113Z,562.8
2022-09-28T10:10:33.555Z,567.9
2022-09-28T10:11:40.131Z,565.9
2022-09-28T10:12:46.679Z,573.1
2022-09-28T10:13:53.239Z,567
2022-09-28T10:14:59.795Z,572.4
2022-09-28T10:16:06.348Z,569.8
2022-09-28T10:17:12.904Z,568.2
2022-09-28T10:18:19.460Z,568.3
2022-09-28T10:19:26.023Z,566.6
2022-09-28T10:20:32.565Z,566.8
2022-09-28T10:21:39.126Z,568.8
2022-09-28T10:22:45.679Z,567.2
2022-09-28T10:23:52.237Z,568.6
2022-09-28T10:24:58.791Z,570.6
2022-09-28T10:26:31.715Z,575
2022-09-28T10:27:38.499Z,576.8
2022-09-28T10:28:45.286Z,575.8
2022-09-28T10:29:52.079Z,575.2
2022-09-28T10:30:58.869Z,577.8
2022-09-28T10:32:05.665Z,574.7
2022-09-28T10:33:12.462Z,574.5
2022-09-28T10:34:19.250Z,577.3
2022-09-28T10:35:26.051Z,576.9
2022-09-28T10:36:32.838Z,567.7
2022-09-28T10:37:39.637Z,568.8
2022-09-28T10:38:46.426Z,569.2
2022-09-28T10:39:53.217Z,567.8
2022-09-28T10:43:11.344Z,566.8
2022-09-28T10:44:50.076Z,570.5
2022-09-28T10:46:28.820Z,574.5
2022-09-28T10:47:36.073Z,576.3
2022-09-28T10:48:43.340Z,578.3
2022-09-28T10:50:22.092Z,574.4
2022-09-28T10:52:00.822Z,572.9
2022-09-28T10:53:39.563Z,576
2022-09-28T10:55:18.299Z,572.1
2022-09-28T10:56:57.057Z,575.1
2022-09-28T10:58:35.805Z,575.6
2022-09-28T11:00:14.523Z,576.2
2022-09-28T11:01:53.264Z,569.3
2022-09-28T11:04:04.066Z,572.9
2022-09-28T11:05:59.417Z,572.5
2022-09-28T11:07:05.858Z,569.2
2022-09-28T11:08:12.298Z,570.4
2022-09-28T11:09:18.742Z,571.1
2022-09-28T11:10:25.173Z,566.1
2022-09-28T11:11:31.635Z,571.1
2022-09-28T11:12:38.053Z,567.8
2022-09-28T11:13:44.488Z,570.7
2022-09-28T11:14:50.936Z,563.3
2022-09-28T11:15:57.403Z,568
2022-09-28T11:17:03.800Z,571.3
2022-09-28T11:18:10.242Z,571.4
2022-09-28T11:19:16.676Z,573.8
2022-09-28T11:20:23.109Z,574
2022-09-28T11:21:29.548Z,573.7
2022-09-28T11:22:35.984Z,575.3
2022-09-28T11:23:42.423Z,574
2022-09-28T11:24:48.863Z,577.7
2022-09-28T11:25:55.296Z,573.6
2022-09-28T11:27:01.736Z,575
2022-09-28T11:28:08.187Z,576.5
2022-09-28T11:29:14.609Z,574.8
2022-09-28T11:30:21.052Z,575.2
2022-09-28T11:31:27.478Z,578.2
2022-09-28T11:32:33.973Z,578.4
2022-09-28T11:33:40.507Z,580.6
2022-09-28T11:34:47.064Z,581.4
2022-09-28T11:35:53.602Z,581.1
2022-09-28T11:37:00.159Z,578
2022-09-28T11:38:06.718Z,580.7
2022-09-28T11:39:13.317Z,581.4
2022-09-28T11:40:19.832Z,582.7
2022-09-28T11:41:26.380Z,580.4
2022-09-28T11:42:32.936Z,580.4
2022-09-28T11:43:39.486Z,584.7
2022-09-28T11:44:46.044Z,586.5
2022-09-28T11:45:52.649Z,585.9
2022-09-28T11:46:59.154Z,585.3
2022-09-28T11:48:06.996Z,591.8
2022-09-28T11:49:13.767Z,589
2022-09-28T11:50:20.541Z,589.1
2022-09-28T11:51:27.324Z,589.2
2022-09-28T11:52:34.120Z,581.2
2022-09-28T11:53:40.994Z,580
2022-09-28T11:54:47.716Z,585.2
2022-09-28T11:55:54.495Z,585.9
2022-09-28T11:57:01.308Z,585.2
2022-09-28T11:58:08.074Z,585.8
2022-09-28T11:59:14.879Z,588.8
2022-09-28T12:00:21.668Z,594.7
2022-09-28T12:01:28.453Z,600.8
2022-09-28T12:04:46.558Z,603.5
2022-09-28T12:05:53.833Z,612.5
2022-09-28T12:07:01.093Z,612.7
2022-09-28T12:08:39.840Z,616.9
2022-09-28T12:10:18.568Z,596.4
2022-09-28T12:11:57.302Z,601.7
2022-09-28T12:13:36.052Z,596.4
2022-09-28T12:15:14.812Z,589.4
2022-09-28T12:16:53.514Z,595.1
2022-09-28T12:18:32.258Z,601.4
2022-09-28T12:20:10.990Z,597.4
2022-09-28T12:21:49.735Z,592.9
2022-09-28T12:22:57.006Z,589.6
2022-09-28T12:25:57.748Z,590
2022-09-28T12:29:13.426Z,583.5
2022-09-28T12:30:19.987Z,581.1
2022-09-28T12:31:26.535Z,581.3
2022-09-28T12:32:33.135Z,579.6
2022-09-28T12:33:39.647Z,581.6
2022-09-28T12:34:46.211Z,578.4
2022-09-28T12:35:52.758Z,576.8
2022-09-28T12:36:59.320Z,575.4
2022-09-28T12:38:05.871Z,577.1
2022-09-28T12:39:12.430Z,573.6
2022-09-28T12:40:18.986Z,578.9
2022-09-28T12:41:25.547Z,580.4
2022-09-28T12:42:32.105Z,578.8
2022-09-28T12:43:38.652Z,579.5
2022-09-28T12:44:45.214Z,580
2022-09-28T12:45:51.816Z,580.2
2022-09-28T12:46:58.321Z,575.3
2022-09-28T12:48:04.881Z,581.7
2022-09-28T12:49:11.451Z,593.3
2022-09-28T12:50:17.987Z,593.9
2022-09-28T12:51:24.545Z,590.5
2022-09-28T12:52:31.178Z,588.9
2022-09-28T12:53:37.656Z,596.7
2022-09-28T12:54:44.209Z,591.5
2022-09-28T12:55:50.769Z,595
2022-09-28T12:56:57.557Z,591.6
2022-09-28T12:58:04.345Z,593.9
2022-09-28T12:59:11.147Z,590.4
2022-09-28T13:00:17.945Z,591.8
2022-09-28T13:01:24.720Z,587.8
2022-09-28T13:02:31.512Z,584.9
2022-09-28T13:03:38.305Z,583.1
2022-09-28T13:04:45.112Z,583.8
2022-09-28T13:05:51.899Z,584
2022-09-28T13:06:58.705Z,584.4
2022-09-28T13:08:05.478Z,582.9
2022-09-28T13:09:12.266Z,587.2
2022-09-28T13:10:19.059Z,584.6
2022-09-28T13:11:26.364Z,585.4
2022-09-28T13:13:05.099Z,585.7
2022-09-28T13:14:43.839Z,579.5
2022-09-28T13:16:22.583Z,586
2022-09-28T13:18:01.307Z,579.8
2022-09-28T13:19:40.047Z,590.8
2022-09-28T13:21:18.789Z,599.6
2022-09-28T13:22:57.518Z,603.8
2022-09-28T13:24:36.247Z,607
2022-09-28T13:26:14.979Z,604.8
2022-09-28T13:27:53.721Z,603.6
2022-09-28T13:29:32.452Z,602.6
2022-09-28T13:31:11.189Z,596.5
2022-09-28T13:35:19.207Z,592.4
2022-09-28T13:36:27.479Z,590.8
2022-09-28T13:38:36.617Z,589.1
2022-09-28T13:41:52.336Z,587.2
2022-09-28T13:42:58.877Z,583.3
2022-09-28T13:44:05.410Z,583.4
2022-09-28T13:45:11.968Z,580.9
2022-09-28T13:46:18.544Z,577.8
2022-09-28T13:47:25.075Z,577.8
2022-09-28T13:48:31.640Z,577.5
2022-09-28T13:49:38.188Z,578.7
2022-09-28T13:50:44.757Z,579
2022-09-28T13:51:51.308Z,577.8
2022-09-28T13:52:57.857Z,577.2
2022-09-28T13:54:04.417Z,579.7
2022-09-28T13:55:10.975Z,575.8
2022-09-28T13:56:17.536Z,576.5
2022-09-28T13:57:24.082Z,581
2022-09-28T13:58:30.644Z,583.2
2022-09-28T13:59:37.196Z,582
2022-09-28T14:00:43.751Z,578
2022-09-28T14:01:50.308Z,577.6
2022-09-28T14:02:56.879Z,580.3
2022-09-28T14:04:03.424Z,579.9
2022-09-28T14:05:09.980Z,579.3
2022-09-28T14:06:16.551Z,578.5
2022-09-28T14:07:23.097Z,577.2
2022-09-28T14:08:29.648Z,580.6
2022-09-28T14:09:36.444Z,581.7
2022-09-28T14:10:43.242Z,578.9
2022-09-28T14:11:50.029Z,580.4
2022-09-28T14:12:56.819Z,578.6
2022-09-28T14:14:03.606Z,578.4
2022-09-28T14:15:10.408Z,578.9
2022-09-28T14:16:17.220Z,575.8
2022-09-28T14:17:23.999Z,578
2022-09-28T14:18:30.787Z,573.5
2022-09-28T14:19:37.583Z,576.3
2022-09-28T14:20:44.375Z,575.8
2022-09-28T14:21:51.172Z,573.7
2022-09-28T14:22:57.967Z,572
2022-09-28T14:26:16.091Z,575
2022-09-28T14:27:23.357Z,575
2022-09-28T14:28:30.620Z,578.3
2022-09-28T14:30:09.361Z,574.8
2022-09-28T14:31:48.143Z,576
2022-09-28T14:33:26.839Z,574.7
2022-09-28T14:35:05.586Z,574.8
2022-09-28T14:36:44.349Z,575.5
2022-09-28T14:38:23.141Z,573.7
2022-09-28T14:40:01.812Z,575.2
2022-09-28T14:41:40.548Z,574.4
2022-09-28T14:43:19.280Z,571.3
2022-09-28T14:44:26.565Z,573.2
2022-09-28T14:47:27.286Z,572.9
2022-09-28T14:50:43.207Z,571.4
2022-09-28T14:51:49.996Z,572
2022-09-28T14:52:56.791Z,568.9
2022-09-28T14:54:03.591Z,568.9
2022-09-28T14:55:10.386Z,568
2022-09-28T14:56:17.180Z,565.6
2022-09-28T14:57:23.962Z,566.4
2022-09-28T14:58:30.765Z,567.4
2022-09-28T14:59:37.547Z,563.2
2022-09-28T15:00:44.342Z,570.8
2022-09-28T15:01:51.130Z,567.6
2022-09-28T15:02:57.924Z,567.8
2022-09-28T15:04:04.721Z,569.1
2022-09-28T15:05:11.520Z,568.7
2022-09-28T15:06:18.308Z,568.8
2022-09-28T15:07:25.104Z,567.7
2022-09-28T15:08:31.891Z,567.8
2022-09-28T15:09:38.684Z,569.7
2022-09-28T15:10:45.482Z,565
2022-09-28T15:11:52.277Z,571.7
2022-09-28T15:12:59.066Z,570.1
2022-09-28T15:14:05.878Z,571.2
2022-09-28T15:15:12.663Z,568.2
2022-09-28T15:16:19.459Z,571.3
2022-09-28T15:17:26.235Z,570.5
2022-09-28T15:18:59.487Z,570.5
2022-09-28T15:20:06.767Z,569.8
2022-09-28T15:21:45.495Z,570.7
2022-09-28T15:23:24.246Z,570.2
2022-09-28T15:25:02.973Z,571.3
2022-09-28T15:26:41.714Z,570
2022-09-28T15:28:20.459Z,567.3
2022-09-28T15:29:59.195Z,568.5
2022-09-28T15:31:37.928Z,574.1
2022-09-28T15:33:16.677Z,566.1
2022-09-28T15:34:55.415Z,567.5
2022-09-28T15:36:02.685Z,571.3
2022-09-28T15:37:09.952Z,571.3
2022-09-28T15:41:17.993Z,570.2
2022-09-28T15:44:33.685Z,568
2022-09-28T15:45:40.239Z,574.2
2022-09-28T15:46:46.790Z,569.3
2022-09-28T15:47:53.349Z,571
2022-09-28T15:48:59.907Z,569.2
2022-09-28T15:50:06.474Z,570.1
2022-09-28T15:51:13.025Z,568.8
2022-09-28T15:52:19.582Z,568.3
2022-09-28T15:53:26.141Z,569.2
2022-09-28T15:54:32.714Z,571.2
2022-09-28T15:55:39.255Z,567.2
2022-09-28T15:56:45.818Z,563.1
2022-09-28T15:57:52.369Z,564.9
2022-09-28T15:58:58.929Z,566.2
2022-09-28T16:00:05.483Z,565.9
2022-09-28T16:01:12.032Z,562.8
2022-09-28T16:02:18.610Z,563.8
2022-09-28T16:03:25.216Z,565.2
2022-09-28T16:04:31.707Z,565.1
2022-09-28T16:05:38.261Z,563.4
2022-09-28T16:06:44.824Z,566.1
2022-09-28T16:07:51.376Z,568.9
2022-09-28T16:08:57.924Z,567.7
2022-09-28T16:10:04.475Z,561.1
2022-09-28T16:11:11.037Z,563.7